sensor_id;sensor_type;location;lat;lon;timestamp;P1;durP1;ratioP1;P2;durP2;ratioP2
81841;SDS011;71284;50.918;7.092;2023-08-06T00:00:58;2.93;;;2.70;;
81841;SDS011;71284;50.918;7.092;2023-08-06T00:03:25;10.20;;;3.93;;
81841;SDS011;71284;50.918;7.092;2023-08-06T00:05:52;7.47;;;3.30;;
81841;SDS011;71284;50.918;7.092;2023-08-06T00:08:18;3.47;;;3.27;;
81841;SDS011;71284;50.918;7.092;2023-08-06T00:10:47;7.07;;;3.43;;
81841;SDS011;71284;50.918;7.092;2023-08-06T00:13:11;4.27;;;3.83;;
81841;SDS011;71284;50.918;7.092;2023-08-06T00:15:38;6.50;;;3.90;;
81841;SDS011;71284;50.918;7.092;2023-08-06T00:18:05;4.13;;;3.83;;
81841;SDS011;71284;50.918;7.092;2023-08-06T00:20:31;5.97;;;3.47;;
81841;SDS011;71284;50.918;7.092;2023-08-06T00:22:58;3.70;;;3.40;;
81841;SDS011;71284;50.918;7.092;2023-08-06T00:25:24;6.00;;;3.53;;
81841;SDS011;71284;50.918;7.092;2023-08-06T00:27:51;5.13;;;3.60;;
81841;SDS011;71284;50.918;7.092;2023-08-06T00:30:18;10.43;;;3.50;;
81841;SDS011;71284;50.918;7.092;2023-08-06T00:32:44;3.83;;;2.93;;
81841;SDS011;71284;50.918;7.092;2023-08-06T00:35:11;3.67;;;3.10;;
81841;SDS011;71284;50.918;7.092;2023-08-06T00:37:37;2.97;;;2.77;;
81841;SDS011;71284;50.918;7.092;2023-08-06T00:40:04;9.27;;;3.50;;
81841;SDS011;71284;50.918;7.092;2023-08-06T00:42:32;4.90;;;3.10;;
81841;SDS011;71284;50.918;7.092;2023-08-06T00:44:59;3.67;;;2.70;;
81841;SDS011;71284;50.918;7.092;2023-08-06T00:47:25;11.70;;;3.80;;
81841;SDS011;71284;50.918;7.092;2023-08-06T00:49:52;4.93;;;3.60;;
81841;SDS011;71284;50.918;7.092;2023-08-06T00:52:18;4.87;;;3.20;;
81841;SDS011;71284;50.918;7.092;2023-08-06T00:54:45;6.30;;;4.33;;
81841;SDS011;71284;50.918;7.092;2023-08-06T00:57:11;6.13;;;3.60;;
81841;SDS011;71284;50.918;7.092;2023-08-06T00:59:38;6.73;;;3.73;;
81841;SDS011;71284;50.918;7.092;2023-08-06T01:02:05;4.30;;;3.40;;
81841;SDS011;71284;50.918;7.092;2023-08-06T01:04:32;4.43;;;3.60;;
81841;SDS011;71284;50.918;7.092;2023-08-06T01:07:10;4.10;;;3.80;;
81841;SDS011;71284;50.918;7.092;2023-08-06T01:12:32;4.40;;;3.60;;
81841;SDS011;71284;50.918;7.092;2023-08-06T01:15:00;4.80;;;3.10;;
81841;SDS011;71284;50.918;7.092;2023-08-06T01:17:35;4.07;;;3.73;;
81841;SDS011;71284;50.918;7.092;2023-08-06T01:20:02;9.60;;;3.83;;
81841;SDS011;71284;50.918;7.092;2023-08-06T01:22:28;3.50;;;3.20;;
81841;SDS011;71284;50.918;7.092;2023-08-06T01:24:55;4.03;;;3.43;;
81841;SDS011;71284;50.918;7.092;2023-08-06T01:27:26;5.43;;;3.80;;
81841;SDS011;71284;50.918;7.092;2023-08-06T01:30:09;4.03;;;3.73;;
81841;SDS011;71284;50.918;7.092;2023-08-06T01:32:37;7.00;;;4.60;;
81841;SDS011;71284;50.918;7.092;2023-08-06T01:35:03;5.30;;;3.80;;
81841;SDS011;71284;50.918;7.092;2023-08-06T01:37:31;5.43;;;3.83;;
81841;SDS011;71284;50.918;7.092;2023-08-06T01:39:57;17.23;;;4.00;;
81841;SDS011;71284;50.918;7.092;2023-08-06T01:42:23;10.33;;;3.43;;
81841;SDS011;71284;50.918;7.092;2023-08-06T01:44:50;4.70;;;4.20;;
81841;SDS011;71284;50.918;7.092;2023-08-06T01:47:17;7.70;;;3.57;;
81841;SDS011;71284;50.918;7.092;2023-08-06T01:49:43;8.57;;;4.00;;
81841;SDS011;71284;50.918;7.092;2023-08-06T01:52:10;5.07;;;3.77;;
81841;SDS011;71284;50.918;7.092;2023-08-06T01:54:36;6.93;;;3.70;;
81841;SDS011;71284;50.918;7.092;2023-08-06T01:57:03;3.33;;;3.23;;
81841;SDS011;71284;50.918;7.092;2023-08-06T01:59:30;7.00;;;3.33;;
81841;SDS011;71284;50.918;7.092;2023-08-06T02:01:56;3.83;;;3.53;;
81841;SDS011;71284;50.918;7.092;2023-08-06T02:04:23;5.33;;;3.80;;
81841;SDS011;71284;50.918;7.092;2023-08-06T02:06:50;3.53;;;3.30;;
81841;SDS011;71284;50.918;7.092;2023-08-06T02:09:16;6.17;;;3.17;;
81841;SDS011;71284;50.918;7.092;2023-08-06T02:11:43;4.07;;;3.50;;
81841;SDS011;71284;50.918;7.092;2023-08-06T02:14:09;16.23;;;3.70;;
81841;SDS011;71284;50.918;7.092;2023-08-06T02:16:36;6.27;;;3.80;;
81841;SDS011;71284;50.918;7.092;2023-08-06T02:19:03;3.90;;;2.97;;
81841;SDS011;71284;50.918;7.092;2023-08-06T02:21:29;5.00;;;3.47;;
81841;SDS011;71284;50.918;7.092;2023-08-06T02:23:56;4.53;;;3.77;;
81841;SDS011;71284;50.918;7.092;2023-08-06T02:26:22;3.73;;;3.43;;
81841;SDS011;71284;50.918;7.092;2023-08-06T02:28:49;5.13;;;4.17;;
81841;SDS011;71284;50.918;7.092;2023-08-06T02:31:16;3.80;;;3.27;;
81841;SDS011;71284;50.918;7.092;2023-08-06T02:33:42;3.67;;;3.40;;
81841;SDS011;71284;50.918;7.092;2023-08-06T02:36:09;6.40;;;3.60;;
81841;SDS011;71284;50.918;7.092;2023-08-06T02:38:35;3.30;;;3.10;;
81841;SDS011;71284;50.918;7.092;2023-08-06T02:41:02;4.07;;;3.10;;
81841;SDS011;71284;50.918;7.092;2023-08-06T02:43:29;12.43;;;3.40;;
81841;SDS011;71284;50.918;7.092;2023-08-06T02:45:56;7.80;;;3.37;;
81841;SDS011;71284;50.918;7.092;2023-08-06T02:48:22;3.30;;;3.20;;
81841;SDS011;71284;50.918;7.092;2023-08-06T02:50:49;4.10;;;3.53;;
81841;SDS011;71284;50.918;7.092;2023-08-06T02:53:16;3.10;;;2.77;;
81841;SDS011;71284;50.918;7.092;2023-08-06T02:55:45;3.47;;;3.27;;
81841;SDS011;71284;50.918;7.092;2023-08-06T02:58:11;3.93;;;2.90;;
81841;SDS011;71284;50.918;7.092;2023-08-06T03:00:37;3.27;;;3.07;;
81841;SDS011;71284;50.918;7.092;2023-08-06T03:03:04;6.43;;;3.00;;
81841;SDS011;71284;50.918;7.092;2023-08-06T03:05:30;9.70;;;3.17;;
81841;SDS011;71284;50.918;7.092;2023-08-06T03:07:57;4.07;;;3.20;;
81841;SDS011;71284;50.918;7.092;2023-08-06T03:10:24;4.90;;;2.60;;
81841;SDS011;71284;50.918;7.092;2023-08-06T03:12:50;6.50;;;2.70;;
81841;SDS011;71284;50.918;7.092;2023-08-06T03:15:17;5.23;;;3.50;;
81841;SDS011;71284;50.918;7.092;2023-08-06T03:17:44;4.10;;;3.13;;
81841;SDS011;71284;50.918;7.092;2023-08-06T03:20:10;3.53;;;3.23;;
81841;SDS011;71284;50.918;7.092;2023-08-06T03:22:37;3.33;;;3.03;;
81841;SDS011;71284;50.918;7.092;2023-08-06T03:25:04;4.37;;;4.07;;
81841;SDS011;71284;50.918;7.092;2023-08-06T03:27:31;3.73;;;3.43;;
81841;SDS011;71284;50.918;7.092;2023-08-06T03:29:57;5.67;;;3.50;;
81841;SDS011;71284;50.918;7.092;2023-08-06T03:32:24;11.73;;;3.60;;
81841;SDS011;71284;50.918;7.092;2023-08-06T03:34:50;3.73;;;3.43;;
81841;SDS011;71284;50.918;7.092;2023-08-06T03:37:17;3.90;;;3.53;;
81841;SDS011;71284;50.918;7.092;2023-08-06T03:39:44;7.43;;;3.30;;
81841;SDS011;71284;50.918;7.092;2023-08-06T03:42:10;3.30;;;3.00;;
81841;SDS011;71284;50.918;7.092;2023-08-06T03:44:37;3.73;;;3.30;;
81841;SDS011;71284;50.918;7.092;2023-08-06T03:47:03;2.90;;;2.80;;
81841;SDS011;71284;50.918;7.092;2023-08-06T03:49:30;3.67;;;3.47;;
81841;SDS011;71284;50.918;7.092;2023-08-06T03:51:57;7.30;;;3.10;;
81841;SDS011;71284;50.918;7.092;2023-08-06T03:54:24;7.23;;;3.47;;
81841;SDS011;71284;50.918;7.092;2023-08-06T03:56:50;7.47;;;4.03;;
81841;SDS011;71284;50.918;7.092;2023-08-06T03:59:17;3.67;;;3.20;;
81841;SDS011;71284;50.918;7.092;2023-08-06T04:01:43;3.80;;;3.50;;
81841;SDS011;71284;50.918;7.092;2023-08-06T04:04:10;4.73;;;3.67;;
81841;SDS011;71284;50.918;7.092;2023-08-06T04:06:37;7.90;;;3.80;;
81841;SDS011;71284;50.918;7.092;2023-08-06T04:09:03;7.33;;;4.17;;
81841;SDS011;71284;50.918;7.092;2023-08-06T04:11:30;8.40;;;3.70;;
81841;SDS011;71284;50.918;7.092;2023-08-06T04:13:56;5.73;;;3.97;;
81841;SDS011;71284;50.918;7.092;2023-08-06T04:16:23;6.07;;;3.70;;
81841;SDS011;71284;50.918;7.092;2023-08-06T04:18:49;12.50;;;4.37;;
81841;SDS011;71284;50.918;7.092;2023-08-06T04:21:16;18.83;;;5.20;;
81841;SDS011;71284;50.918;7.092;2023-08-06T04:23:43;6.40;;;4.37;;
81841;SDS011;71284;50.918;7.092;2023-08-06T04:26:09;4.47;;;4.03;;
81841;SDS011;71284;50.918;7.092;2023-08-06T04:28:36;4.47;;;4.07;;
81841;SDS011;71284;50.918;7.092;2023-08-06T04:31:02;10.77;;;4.00;;
81841;SDS011;71284;50.918;7.092;2023-08-06T04:33:29;11.20;;;4.10;;
81841;SDS011;71284;50.918;7.092;2023-08-06T04:35:56;10.87;;;3.50;;
81841;SDS011;71284;50.918;7.092;2023-08-06T04:38:23;7.83;;;3.80;;
81841;SDS011;71284;50.918;7.092;2023-08-06T04:40:49;3.63;;;3.30;;
81841;SDS011;71284;50.918;7.092;2023-08-06T04:43:16;4.40;;;3.40;;
81841;SDS011;71284;50.918;7.092;2023-08-06T04:45:48;4.30;;;3.40;;
81841;SDS011;71284;50.918;7.092;2023-08-06T04:48:15;3.50;;;3.03;;
81841;SDS011;71284;50.918;7.092;2023-08-06T04:50:43;4.10;;;3.20;;
81841;SDS011;71284;50.918;7.092;2023-08-06T04:53:10;5.93;;;3.10;;
81841;SDS011;71284;50.918;7.092;2023-08-06T04:55:37;5.90;;;3.37;;
81841;SDS011;71284;50.918;7.092;2023-08-06T04:58:04;3.97;;;3.57;;
81841;SDS011;71284;50.918;7.092;2023-08-06T05:00:30;5.23;;;3.17;;
81841;SDS011;71284;50.918;7.092;2023-08-06T05:02:59;7.20;;;3.47;;
81841;SDS011;71284;50.918;7.092;2023-08-06T05:05:23;6.37;;;3.27;;
81841;SDS011;71284;50.918;7.092;2023-08-06T05:07:50;3.60;;;3.27;;
81841;SDS011;71284;50.918;7.092;2023-08-06T05:10:17;4.40;;;3.10;;
81841;SDS011;71284;50.918;7.092;2023-08-06T05:12:43;4.77;;;4.33;;
81841;SDS011;71284;50.918;7.092;2023-08-06T05:15:10;3.03;;;2.83;;
81841;SDS011;71284;50.918;7.092;2023-08-06T05:17:36;10.37;;;2.80;;
81841;SDS011;71284;50.918;7.092;2023-08-06T05:20:08;5.80;;;3.30;;
81841;SDS011;71284;50.918;7.092;2023-08-06T05:22:35;11.50;;;3.80;;
81841;SDS011;71284;50.918;7.092;2023-08-06T05:25:02;5.10;;;3.53;;
81841;SDS011;71284;50.918;7.092;2023-08-06T05:27:29;3.20;;;2.80;;
81841;SDS011;71284;50.918;7.092;2023-08-06T05:29:55;6.30;;;3.53;;
81841;SDS011;71284;50.918;7.092;2023-08-06T05:32:22;11.60;;;4.40;;
81841;SDS011;71284;50.918;7.092;2023-08-06T05:34:48;8.37;;;3.10;;
81841;SDS011;71284;50.918;7.092;2023-08-06T05:37:15;3.70;;;2.50;;
81841;SDS011;71284;50.918;7.092;2023-08-06T05:39:42;3.80;;;3.07;;
81841;SDS011;71284;50.918;7.092;2023-08-06T05:42:08;7.30;;;3.07;;
81841;SDS011;71284;50.918;7.092;2023-08-06T05:44:35;6.50;;;3.37;;
81841;SDS011;71284;50.918;7.092;2023-08-06T05:47:01;4.13;;;2.90;;
81841;SDS011;71284;50.918;7.092;2023-08-06T05:49:28;7.40;;;3.37;;
81841;SDS011;71284;50.918;7.092;2023-08-06T05:51:54;6.40;;;2.40;;
81841;SDS011;71284;50.918;7.092;2023-08-06T05:54:21;4.30;;;3.10;;
81841;SDS011;71284;50.918;7.092;2023-08-06T05:56:48;5.80;;;2.33;;
81841;SDS011;71284;50.918;7.092;2023-08-06T05:59:14;6.00;;;2.80;;
81841;SDS011;71284;50.918;7.092;2023-08-06T06:01:41;9.80;;;2.57;;
81841;SDS011;71284;50.918;7.092;2023-08-06T06:04:07;3.03;;;2.20;;
81841;SDS011;71284;50.918;7.092;2023-08-06T06:06:34;7.83;;;3.00;;
81841;SDS011;71284;50.918;7.092;2023-08-06T06:09:01;6.10;;;2.73;;
81841;SDS011;71284;50.918;7.092;2023-08-06T06:11:27;3.00;;;2.80;;
81841;SDS011;71284;50.918;7.092;2023-08-06T06:13:54;3.50;;;2.53;;
81841;SDS011;71284;50.918;7.092;2023-08-06T06:16:20;3.40;;;2.87;;
81841;SDS011;71284;50.918;7.092;2023-08-06T06:18:47;2.50;;;2.30;;
81841;SDS011;71284;50.918;7.092;2023-08-06T06:21:14;3.00;;;2.40;;
81841;SDS011;71284;50.918;7.092;2023-08-06T06:23:40;2.70;;;2.60;;
81841;SDS011;71284;50.918;7.092;2023-08-06T06:26:07;9.27;;;3.17;;
81841;SDS011;71284;50.918;7.092;2023-08-06T06:28:33;2.60;;;2.50;;
81841;SDS011;71284;50.918;7.092;2023-08-06T06:31:00;3.20;;;2.80;;
81841;SDS011;71284;50.918;7.092;2023-08-06T06:33:27;3.63;;;2.07;;
81841;SDS011;71284;50.918;7.092;2023-08-06T06:35:53;4.47;;;2.80;;
81841;SDS011;71284;50.918;7.092;2023-08-06T06:38:20;5.73;;;2.67;;
81841;SDS011;71284;50.918;7.092;2023-08-06T06:43:19;3.27;;;2.20;;
81841;SDS011;71284;50.918;7.092;2023-08-06T06:45:46;2.00;;;1.80;;
81841;SDS011;71284;50.918;7.092;2023-08-06T06:48:13;2.60;;;1.70;;
81841;SDS011;71284;50.918;7.092;2023-08-06T06:50:39;2.80;;;1.40;;
81841;SDS011;71284;50.918;7.092;2023-08-06T06:53:06;3.47;;;2.33;;
81841;SDS011;71284;50.918;7.092;2023-08-06T06:55:32;1.60;;;1.20;;
81841;SDS011;71284;50.918;7.092;2023-08-06T06:57:59;1.90;;;1.60;;
81841;SDS011;71284;50.918;7.092;2023-08-06T07:00:26;1.40;;;1.30;;
81841;SDS011;71284;50.918;7.092;2023-08-06T07:02:52;1.00;;;1.00;;
81841;SDS011;71284;50.918;7.092;2023-08-06T07:05:19;6.07;;;1.30;;
81841;SDS011;71284;50.918;7.092;2023-08-06T07:07:45;1.00;;;1.00;;
81841;SDS011;71284;50.918;7.092;2023-08-06T07:10:12;1.27;;;1.17;;
81841;SDS011;71284;50.918;7.092;2023-08-06T07:12:39;0.97;;;0.97;;
81841;SDS011;71284;50.918;7.092;2023-08-06T07:15:05;1.33;;;1.23;;
81841;SDS011;71284;50.918;7.092;2023-08-06T07:17:32;1.10;;;0.80;;
81841;SDS011;71284;50.918;7.092;2023-08-06T07:19:59;1.70;;;0.83;;
81841;SDS011;71284;50.918;7.092;2023-08-06T07:22:25;2.70;;;0.93;;
81841;SDS011;71284;50.918;7.092;2023-08-06T07:24:52;1.03;;;0.93;;
81841;SDS011;71284;50.918;7.092;2023-08-06T07:27:18;0.93;;;0.93;;
81841;SDS011;71284;50.918;7.092;2023-08-06T07:29:45;0.70;;;0.70;;
81841;SDS011;71284;50.918;7.092;2023-08-06T07:32:12;6.50;;;1.43;;
81841;SDS011;71284;50.918;7.092;2023-08-06T07:34:38;2.97;;;1.43;;
81841;SDS011;71284;50.918;7.092;2023-08-06T07:37:05;1.43;;;1.33;;
81841;SDS011;71284;50.918;7.092;2023-08-06T07:39:31;1.37;;;1.03;;
81841;SDS011;71284;50.918;7.092;2023-08-06T07:41:58;0.73;;;0.63;;
81841;SDS011;71284;50.918;7.092;2023-08-06T07:44:25;0.97;;;0.97;;
81841;SDS011;71284;50.918;7.092;2023-08-06T07:46:51;0.97;;;0.97;;
81841;SDS011;71284;50.918;7.092;2023-08-06T07:49:18;2.20;;;0.90;;
81841;SDS011;71284;50.918;7.092;2023-08-06T07:51:44;4.67;;;1.57;;
81841;SDS011;71284;50.918;7.092;2023-08-06T07:54:11;1.30;;;1.20;;
81841;SDS011;71284;50.918;7.092;2023-08-06T07:56:38;2.00;;;1.90;;
81841;SDS011;71284;50.918;7.092;2023-08-06T07:59:04;1.33;;;1.23;;
81841;SDS011;71284;50.918;7.092;2023-08-06T08:01:31;1.93;;;1.83;;
81841;SDS011;71284;50.918;7.092;2023-08-06T08:03:57;2.47;;;2.00;;
81841;SDS011;71284;50.918;7.092;2023-08-06T08:06:24;1.57;;;1.47;;
81841;SDS011;71284;50.918;7.092;2023-08-06T08:08:51;1.60;;;1.50;;
81841;SDS011;71284;50.918;7.092;2023-08-06T08:11:17;4.80;;;1.60;;
81841;SDS011;71284;50.918;7.092;2023-08-06T08:13:44;1.37;;;1.30;;
81841;SDS011;71284;50.918;7.092;2023-08-06T08:16:10;1.67;;;1.57;;
81841;SDS011;71284;50.918;7.092;2023-08-06T08:18:37;2.60;;;1.60;;
81841;SDS011;71284;50.918;7.092;2023-08-06T08:21:04;2.77;;;2.47;;
81841;SDS011;71284;50.918;7.092;2023-08-06T08:23:30;5.30;;;2.30;;
81841;SDS011;71284;50.918;7.092;2023-08-06T08:25:57;3.90;;;2.30;;
81841;SDS011;71284;50.918;7.092;2023-08-06T08:28:23;3.13;;;2.20;;
81841;SDS011;71284;50.918;7.092;2023-08-06T08:30:50;2.10;;;1.83;;
81841;SDS011;71284;50.918;7.092;2023-08-06T08:33:17;1.63;;;1.60;;
81841;SDS011;71284;50.918;7.092;2023-08-06T08:35:45;1.73;;;1.60;;
81841;SDS011;71284;50.918;7.092;2023-08-06T08:38:10;10.70;;;2.37;;
81841;SDS011;71284;50.918;7.092;2023-08-06T08:40:37;2.13;;;2.03;;
81841;SDS011;71284;50.918;7.092;2023-08-06T08:43:03;1.67;;;1.67;;
81841;SDS011;71284;50.918;7.092;2023-08-06T08:45:30;4.07;;;1.90;;
81841;SDS011;71284;50.918;7.092;2023-08-06T08:47:56;2.60;;;1.67;;
81841;SDS011;71284;50.918;7.092;2023-08-06T08:50:23;2.23;;;1.50;;
81841;SDS011;71284;50.918;7.092;2023-08-06T08:52:50;10.40;;;1.97;;
81841;SDS011;71284;50.918;7.092;2023-08-06T08:55:16;5.57;;;1.67;;
81841;SDS011;71284;50.918;7.092;2023-08-06T08:57:42;7.00;;;1.90;;
81841;SDS011;71284;50.918;7.092;2023-08-06T09:00:09;3.60;;;2.00;;
81841;SDS011;71284;50.918;7.092;2023-08-06T09:02:36;2.83;;;1.87;;
81841;SDS011;71284;50.918;7.092;2023-08-06T09:05:02;2.10;;;1.57;;
81841;SDS011;71284;50.918;7.092;2023-08-06T09:07:33;2.20;;;1.40;;
81841;SDS011;71284;50.918;7.092;2023-08-06T09:09:58;1.83;;;1.40;;
81841;SDS011;71284;50.918;7.092;2023-08-06T09:12:25;3.00;;;1.97;;
81841;SDS011;71284;50.918;7.092;2023-08-06T09:14:52;5.00;;;1.83;;
81841;SDS011;71284;50.918;7.092;2023-08-06T09:17:18;1.27;;;1.20;;
81841;SDS011;71284;50.918;7.092;2023-08-06T09:19:45;1.70;;;1.53;;
81841;SDS011;71284;50.918;7.092;2023-08-06T09:22:11;2.43;;;2.00;;
81841;SDS011;71284;50.918;7.092;2023-08-06T09:24:38;2.20;;;2.10;;
81841;SDS011;71284;50.918;7.092;2023-08-06T09:27:05;1.10;;;1.10;;
81841;SDS011;71284;50.918;7.092;2023-08-06T09:29:31;1.30;;;1.30;;
81841;SDS011;71284;50.918;7.092;2023-08-06T09:31:58;1.77;;;1.67;;
81841;SDS011;71284;50.918;7.092;2023-08-06T09:34:24;1.10;;;1.10;;
81841;SDS011;71284;50.918;7.092;2023-08-06T09:36:51;2.20;;;2.10;;
81841;SDS011;71284;50.918;7.092;2023-08-06T09:39:18;2.37;;;2.17;;
81841;SDS011;71284;50.918;7.092;2023-08-06T09:41:46;2.37;;;2.17;;
81841;SDS011;71284;50.918;7.092;2023-08-06T09:44:18;8.13;;;2.63;;
81841;SDS011;71284;50.918;7.092;2023-08-06T09:46:48;2.50;;;1.83;;
81841;SDS011;71284;50.918;7.092;2023-08-06T09:49:14;3.47;;;2.40;;
81841;SDS011;71284;50.918;7.092;2023-08-06T09:51:41;2.07;;;1.97;;
81841;SDS011;71284;50.918;7.092;2023-08-06T09:54:07;2.10;;;1.90;;
81841;SDS011;71284;50.918;7.092;2023-08-06T09:56:33;2.80;;;2.60;;
81841;SDS011;71284;50.918;7.092;2023-08-06T09:59:00;3.50;;;3.20;;
81841;SDS011;71284;50.918;7.092;2023-08-06T10:01:27;4.00;;;3.73;;
81841;SDS011;71284;50.918;7.092;2023-08-06T10:03:53;5.13;;;3.50;;
81841;SDS011;71284;50.918;7.092;2023-08-06T10:06:20;6.90;;;5.40;;
81841;SDS011;71284;50.918;7.092;2023-08-06T10:08:46;5.30;;;4.83;;
81841;SDS011;71284;50.918;7.092;2023-08-06T10:11:13;5.27;;;4.87;;
81841;SDS011;71284;50.918;7.092;2023-08-06T10:13:40;5.37;;;4.87;;
81841;SDS011;71284;50.918;7.092;2023-08-06T10:16:07;5.50;;;5.00;;
81841;SDS011;71284;50.918;7.092;2023-08-06T10:18:34;5.43;;;4.13;;
81841;SDS011;71284;50.918;7.092;2023-08-06T10:21:00;6.07;;;5.23;;
81841;SDS011;71284;50.918;7.092;2023-08-06T10:23:36;8.43;;;5.30;;
81841;SDS011;71284;50.918;7.092;2023-08-06T10:26:03;10.60;;;5.30;;
81841;SDS011;71284;50.918;7.092;2023-08-06T10:28:34;6.37;;;3.97;;
81841;SDS011;71284;50.918;7.092;2023-08-06T10:31:00;1.90;;;1.70;;
81841;SDS011;71284;50.918;7.092;2023-08-06T10:33:39;1.63;;;1.63;;
81841;SDS011;71284;50.918;7.092;2023-08-06T10:35:53;1.63;;;1.10;;
81841;SDS011;71284;50.918;7.092;2023-08-06T10:38:21;0.60;;;0.60;;
81841;SDS011;71284;50.918;7.092;2023-08-06T10:40:49;0.90;;;0.73;;
81841;SDS011;71284;50.918;7.092;2023-08-06T10:45:51;0.50;;;0.50;;
81841;SDS011;71284;50.918;7.092;2023-08-06T10:50:56;1.00;;;0.80;;
81841;SDS011;71284;50.918;7.092;2023-08-06T10:53:22;1.37;;;0.80;;
81841;SDS011;71284;50.918;7.092;2023-08-06T10:55:49;1.00;;;0.70;;
81841;SDS011;71284;50.918;7.092;2023-08-06T10:58:15;0.80;;;0.60;;
81841;SDS011;71284;50.918;7.092;2023-08-06T11:00:42;1.33;;;1.10;;
81841;SDS011;71284;50.918;7.092;2023-08-06T11:03:08;1.07;;;0.83;;
81841;SDS011;71284;50.918;7.092;2023-08-06T11:05:35;1.37;;;1.27;;
81841;SDS011;71284;50.918;7.092;2023-08-06T11:08:02;4.73;;;0.90;;
81841;SDS011;71284;50.918;7.092;2023-08-06T11:10:28;2.63;;;1.43;;
81841;SDS011;71284;50.918;7.092;2023-08-06T11:13:00;2.87;;;1.63;;
81841;SDS011;71284;50.918;7.092;2023-08-06T11:15:21;2.03;;;1.33;;
81841;SDS011;71284;50.918;7.092;2023-08-06T11:17:48;7.60;;;1.70;;
81841;SDS011;71284;50.918;7.092;2023-08-06T11:20:15;2.70;;;1.70;;
81841;SDS011;71284;50.918;7.092;2023-08-06T11:22:41;5.00;;;2.83;;
81841;SDS011;71284;50.918;7.092;2023-08-06T11:25:08;12.23;;;2.37;;
81841;SDS011;71284;50.918;7.092;2023-08-06T11:27:34;3.27;;;2.50;;
81841;SDS011;71284;50.918;7.092;2023-08-06T11:30:01;4.23;;;2.00;;
81841;SDS011;71284;50.918;7.092;2023-08-06T11:32:28;2.57;;;1.90;;
81841;SDS011;71284;50.918;7.092;2023-08-06T11:34:54;4.87;;;1.93;;
81841;SDS011;71284;50.918;7.092;2023-08-06T11:37:21;1.93;;;1.83;;
81841;SDS011;71284;50.918;7.092;2023-08-06T11:39:47;2.03;;;1.70;;
81841;SDS011;71284;50.918;7.092;2023-08-06T11:42:14;5.10;;;1.70;;
81841;SDS011;71284;50.918;7.092;2023-08-06T11:44:41;5.20;;;2.20;;
81841;SDS011;71284;50.918;7.092;2023-08-06T11:47:14;3.87;;;1.67;;
81841;SDS011;71284;50.918;7.092;2023-08-06T11:49:41;6.70;;;2.00;;
81841;SDS011;71284;50.918;7.092;2023-08-06T11:52:08;2.37;;;1.83;;
81841;SDS011;71284;50.918;7.092;2023-08-06T11:54:40;5.73;;;1.83;;
81841;SDS011;71284;50.918;7.092;2023-08-06T11:57:06;5.30;;;2.37;;
81841;SDS011;71284;50.918;7.092;2023-08-06T11:59:33;8.73;;;2.17;;
81841;SDS011;71284;50.918;7.092;2023-08-06T12:02:02;7.20;;;2.20;;
81841;SDS011;71284;50.918;7.092;2023-08-06T12:04:28;8.33;;;3.33;;
81841;SDS011;71284;50.918;7.092;2023-08-06T12:06:55;4.10;;;2.00;;
81841;SDS011;71284;50.918;7.092;2023-08-06T12:09:21;3.20;;;1.77;;
81841;SDS011;71284;50.918;7.092;2023-08-06T12:11:48;2.60;;;1.57;;
81841;SDS011;71284;50.918;7.092;2023-08-06T12:14:15;4.70;;;1.60;;
81841;SDS011;71284;50.918;7.092;2023-08-06T12:16:41;5.80;;;1.97;;
81841;SDS011;71284;50.918;7.092;2023-08-06T12:19:08;7.83;;;1.87;;
81841;SDS011;71284;50.918;7.092;2023-08-06T12:21:34;5.67;;;2.27;;
81841;SDS011;71284;50.918;7.092;2023-08-06T12:24:01;1.17;;;1.17;;
81841;SDS011;71284;50.918;7.092;2023-08-06T12:26:28;11.50;;;1.97;;
81841;SDS011;71284;50.918;7.092;2023-08-06T12:28:54;4.67;;;2.37;;
81841;SDS011;71284;50.918;7.092;2023-08-06T12:31:21;9.20;;;1.43;;
81841;SDS011;71284;50.918;7.092;2023-08-06T12:33:47;2.60;;;1.43;;
81841;SDS011;71284;50.918;7.092;2023-08-06T12:36:14;3.20;;;1.47;;
81841;SDS011;71284;50.918;7.092;2023-08-06T12:38:41;3.43;;;1.40;;
81841;SDS011;71284;50.918;7.092;2023-08-06T12:41:07;7.23;;;1.43;;
81841;SDS011;71284;50.918;7.092;2023-08-06T12:43:34;2.70;;;1.47;;
81841;SDS011;71284;50.918;7.092;2023-08-06T12:46:00;1.03;;;1.00;;
81841;SDS011;71284;50.918;7.092;2023-08-06T12:48:28;5.50;;;1.37;;
81841;SDS011;71284;50.918;7.092;2023-08-06T12:50:54;11.37;;;1.60;;
81841;SDS011;71284;50.918;7.092;2023-08-06T12:53:21;3.77;;;1.77;;
81841;SDS011;71284;50.918;7.092;2023-08-06T12:55:47;2.60;;;1.53;;
81841;SDS011;71284;50.918;7.092;2023-08-06T12:58:14;9.97;;;1.37;;
81841;SDS011;71284;50.918;7.092;2023-08-06T13:00:41;4.67;;;1.20;;
81841;SDS011;71284;50.918;7.092;2023-08-06T13:03:08;4.93;;;2.27;;
81841;SDS011;71284;50.918;7.092;2023-08-06T13:05:35;4.43;;;1.60;;
81841;SDS011;71284;50.918;7.092;2023-08-06T13:08:01;3.50;;;1.70;;
81841;SDS011;71284;50.918;7.092;2023-08-06T13:10:28;3.77;;;1.90;;
81841;SDS011;71284;50.918;7.092;2023-08-06T13:12:54;3.47;;;1.30;;
81841;SDS011;71284;50.918;7.092;2023-08-06T13:15:21;3.03;;;1.60;;
81841;SDS011;71284;50.918;7.092;2023-08-06T13:17:48;6.10;;;2.40;;
81841;SDS011;71284;50.918;7.092;2023-08-06T13:20:14;8.37;;;1.77;;
81841;SDS011;71284;50.918;7.092;2023-08-06T13:22:41;6.37;;;2.07;;
81841;SDS011;71284;50.918;7.092;2023-08-06T13:25:07;2.40;;;1.73;;
81841;SDS011;71284;50.918;7.092;2023-08-06T13:27:34;3.80;;;2.30;;
81841;SDS011;71284;50.918;7.092;2023-08-06T13:30:00;2.30;;;2.10;;
81841;SDS011;71284;50.918;7.092;2023-08-06T13:32:27;3.27;;;2.70;;
81841;SDS011;71284;50.918;7.092;2023-08-06T13:34:54;2.10;;;1.90;;
81841;SDS011;71284;50.918;7.092;2023-08-06T13:37:20;2.43;;;1.90;;
81841;SDS011;71284;50.918;7.092;2023-08-06T13:39:47;7.60;;;2.73;;
81841;SDS011;71284;50.918;7.092;2023-08-06T13:42:13;2.90;;;2.47;;
81841;SDS011;71284;50.918;7.092;2023-08-06T13:44:40;3.13;;;1.77;;
81841;SDS011;71284;50.918;7.092;2023-08-06T13:47:07;3.70;;;1.90;;
81841;SDS011;71284;50.918;7.092;2023-08-06T13:49:33;2.20;;;2.00;;
81841;SDS011;71284;50.918;7.092;2023-08-06T13:52:00;8.00;;;2.33;;
81841;SDS011;71284;50.918;7.092;2023-08-06T13:54:26;5.37;;;2.20;;
81841;SDS011;71284;50.918;7.092;2023-08-06T13:56:53;7.23;;;2.80;;
81841;SDS011;71284;50.918;7.092;2023-08-06T13:59:20;6.57;;;2.37;;
81841;SDS011;71284;50.918;7.092;2023-08-06T14:01:46;4.50;;;2.87;;
81841;SDS011;71284;50.918;7.092;2023-08-06T14:04:13;4.90;;;2.43;;
81841;SDS011;71284;50.918;7.092;2023-08-06T14:06:39;2.90;;;2.47;;
81841;SDS011;71284;50.918;7.092;2023-08-06T14:09:06;4.03;;;2.63;;
81841;SDS011;71284;50.918;7.092;2023-08-06T14:11:33;5.90;;;4.83;;
81841;SDS011;71284;50.918;7.092;2023-08-06T14:13:59;3.40;;;3.10;;
81841;SDS011;71284;50.918;7.092;2023-08-06T14:16:26;11.93;;;3.57;;
81841;SDS011;71284;50.918;7.092;2023-08-06T14:18:52;5.00;;;2.80;;
81841;SDS011;71284;50.918;7.092;2023-08-06T14:21:19;7.60;;;3.90;;
81841;SDS011;71284;50.918;7.092;2023-08-06T14:23:45;3.90;;;3.50;;
81841;SDS011;71284;50.918;7.092;2023-08-06T14:26:12;4.70;;;2.80;;
81841;SDS011;71284;50.918;7.092;2023-08-06T14:28:39;3.33;;;2.70;;
81841;SDS011;71284;50.918;7.092;2023-08-06T14:31:05;3.13;;;2.17;;
81841;SDS011;71284;50.918;7.092;2023-08-06T14:33:32;8.77;;;2.10;;
81841;SDS011;71284;50.918;7.092;2023-08-06T14:35:58;6.33;;;1.87;;
81841;SDS011;71284;50.918;7.092;2023-08-06T14:38:25;1.40;;;1.33;;
81841;SDS011;71284;50.918;7.092;2023-08-06T14:40:52;5.53;;;1.73;;
81841;SDS011;71284;50.918;7.092;2023-08-06T14:43:18;3.90;;;1.70;;
81841;SDS011;71284;50.918;7.092;2023-08-06T14:45:45;2.13;;;0.90;;
81841;SDS011;71284;50.918;7.092;2023-08-06T14:48:11;12.67;;;1.50;;
81841;SDS011;71284;50.918;7.092;2023-08-06T14:50:38;6.80;;;1.20;;
81841;SDS011;71284;50.918;7.092;2023-08-06T14:53:05;6.70;;;1.53;;
81841;SDS011;71284;50.918;7.092;2023-08-06T14:55:31;14.17;;;1.40;;